Time;durP1;ratioP1;P1;durP2;ratioP2;P2;SDS_P1;SDS_P2;PMS_P1;PMS_P2;Temp;Humidity;BMP_temperature;BMP_pressure;BME280_temperature;BME280_humidity;BME280_pressure;Samples;Min_cycle;Max_cycle;Signal;HPM_P1;HPM_P2
2023/11/24 00:00:04;;;;;;;5.18;2.70;;;14.00;75.30;;;;;;5021388;28;20436;-78
2023/11/24 00:02:38;;;;;;;4.78;3.15;;;14.00;74.80;;;;;;5019713;28;20056;-77
2023/11/24 00:05:07;;;;;;;3.92;2.33;;;14.00;74.80;;;;;;5046408;28;20040;-77
2023/11/24 00:07:36;;;;;;;3.65;2.45;;;14.00;74.80;;;;;;5011105;28;20037;-78
2023/11/24 00:10:05;;;;;;;3.53;2.28;;;14.00;74.80;;;;;;5033614;28;20029;-77
2023/11/24 00:12:30;;;;;;;2.40;1.80;;;14.00;74.80;;;;;;5018994;28;20044;-78
2023/11/24 00:14:57;;;;;;;4.32;2.10;;;14.00;74.80;;;;;;5021396;28;20021;-78
2023/11/24 00:17:23;;;;;;;1.58;1.33;;;14.00;74.80;;;;;;5025048;28;20383;-78
2023/11/24 00:19:49;;;;;;;3.40;1.85;;;13.90;74.60;;;;;;5018139;28;20350;-78
2023/11/24 00:22:16;;;;;;;3.65;1.58;;;13.90;74.50;;;;;;5027350;28;20071;-78
2023/11/24 00:24:42;;;;;;;2.33;1.35;;;13.90;74.40;;;;;;5020443;28;20432;-77
2023/11/24 00:27:08;;;;;;;2.42;1.20;;;13.90;74.40;;;;;;5023200;28;20389;-77
2023/11/24 00:29:35;;;;;;;2.15;1.50;;;13.90;74.30;;;;;;5020705;28;20033;-78
2023/11/24 00:32:01;;;;;;;2.67;0.93;;;13.90;74.30;;;;;;5019579;28;20120;-77
2023/11/24 00:34:27;;;;;;;2.90;1.30;;;13.90;74.80;;;;;;5015061;28;20032;-78
2023/11/24 00:36:53;;;;;;;1.60;0.88;;;13.90;74.20;;;;;;5021160;28;20618;-77
2023/11/24 00:39:19;;;;;;;1.92;1.02;;;13.90;74.10;;;;;;5020102;28;20033;-77
2023/11/24 00:41:45;;;;;;;2.83;1.00;;;13.90;74.10;;;;;;5023037;28;20342;-77
2023/11/24 00:44:11;;;;;;;2.63;0.90;;;13.90;74.00;;;;;;5021448;28;20448;-77
2023/11/24 00:46:37;;;;;;;1.48;0.90;;;13.90;73.90;;;;;;5041618;28;20241;-78
2023/11/24 00:49:03;;;;;;;2.40;1.25;;;13.90;74.00;;;;;;5034595;28;20547;-77
2023/11/24 00:51:29;;;;;;;2.42;0.90;;;13.80;73.80;;;;;;5022575;28;20515;-78
2023/11/24 00:53:55;;;;;;;2.20;0.68;;;13.80;73.70;;;;;;5021076;28;20314;-78
2023/11/24 00:56:21;;;;;;;1.10;1.00;;;13.80;73.70;;;;;;5019128;28;20089;-77
2023/11/24 00:58:47;;;;;;;1.25;0.85;;;13.80;73.70;;;;;;5021381;28;20040;-77
2023/11/24 01:01:13;;;;;;;2.80;0.93;;;13.70;73.40;;;;;;5020254;28;20049;-76
2023/11/24 01:03:39;;;;;;;1.15;0.70;;;13.70;73.40;;;;;;5031979;28;20034;-77
2023/11/24 01:06:05;;;;;;;2.08;0.70;;;13.70;73.30;;;;;;5043173;28;20036;-77
2023/11/24 01:08:31;;;;;;;1.17;0.60;;;13.70;73.30;;;;;;5020532;28;20038;-78
2023/11/24 01:10:57;;;;;;;1.15;0.57;;;13.60;73.00;;;;;;5024891;28;20489;-77
2023/11/24 01:13:24;;;;;;;1.85;1.55;;;13.60;73.00;;;;;;5051973;28;20127;-78
2023/11/24 01:15:51;;;;;;;3.10;0.60;;;13.60;73.00;;;;;;5028546;28;20439;-77
2023/11/24 01:18:18;;;;;;;5.82;1.52;;;13.50;72.70;;;;;;5016737;28;20133;-78
2023/11/24 01:20:45;;;;;;;2.33;0.90;;;13.50;72.70;;;;;;5011395;28;20021;-78
2023/11/24 01:23:11;;;;;;;2.80;0.70;;;13.50;72.70;;;;;;5054892;28;20493;-77
2023/11/24 01:25:37;;;;;;;2.47;0.70;;;13.50;72.70;;;;;;5051358;28;20084;-77
2023/11/24 01:28:04;;;;;;;4.60;1.20;;;13.50;72.60;;;;;;5036228;28;20425;-77
2023/11/24 01:30:29;;;;;;;3.47;1.35;;;13.40;72.30;;;;;;5022971;28;20037;-78
2023/11/24 01:32:55;;;;;;;3.20;1.05;;;13.40;72.30;;;;;;5024594;28;20037;-78
2023/11/24 01:35:21;;;;;;;1.63;0.73;;;13.30;72.10;;;;;;5024015;28;20508;-77
2023/11/24 01:37:47;;;;;;;3.80;1.00;;;13.30;72.00;;;;;;5031262;28;20034;-80
2023/11/24 01:40:17;;;;;;;3.28;0.90;;;13.30;71.90;;;;;;5020407;28;20116;-80
2023/11/24 01:42:44;;;;;;;4.43;0.98;;;13.30;71.90;;;;;;5020679;28;20044;-77
2023/11/24 01:45:10;;;;;;;4.90;1.85;;;13.30;71.90;;;;;;5028337;28;20129;-79
2023/11/24 01:47:37;;;;;;;5.25;1.60;;;13.20;71.70;;;;;;5038373;28;20037;-79
2023/11/24 01:50:04;;;;;;;4.43;1.23;;;13.20;71.60;;;;;;5030776;28;20064;-78
2023/11/24 01:52:32;;;;;;;4.45;1.30;;;13.20;72.00;;;;;;5020677;28;20034;-78
2023/11/24 01:54:59;;;;;;;4.88;1.20;;;13.10;71.40;;;;;;5025728;28;20036;-78
2023/11/24 01:57:25;;;;;;;6.63;1.13;;;13.10;71.20;;;;;;5016146;28;20053;-79
2023/11/24 01:59:53;;;;;;;5.28;1.10;;;13.10;71.20;;;;;;5016421;28;20030;-78
2023/11/24 02:02:21;;;;;;;5.05;1.15;;;13.10;71.10;;;;;;5014219;28;20472;-78
2023/11/24 02:04:47;;;;;;;3.95;1.63;;;13.10;71.10;;;;;;5001897;28;20022;-79
2023/11/24 02:07:14;;;;;;;6.50;1.45;;;13.00;70.90;;;;;;5022054;28;20028;-78
2023/11/24 02:09:43;;;;;;;3.15;1.38;;;13.00;71.40;;;;;;5019687;28;20080;-78
2023/11/24 02:12:09;;;;;;;6.60;2.22;;;13.00;70.80;;;;;;5025181;28;20037;-78
2023/11/24 02:14:36;;;;;;;5.28;1.00;;;12.90;70.60;;;;;;5037161;28;20082;-79
2023/11/24 02:17:02;;;;;;;5.85;2.35;;;12.90;70.60;;;;;;5028353;28;20025;-78
2023/11/24 02:19:28;;;;;;;5.63;1.60;;;12.90;70.60;;;;;;5020242;28;20038;-79
2023/11/24 02:21:54;;;;;;;5.20;1.30;;;12.90;70.60;;;;;;5023021;28;20041;-78
2023/11/24 02:24:21;;;;;;;3.67;1.23;;;12.90;70.50;;;;;;5035316;28;20608;-78
2023/11/24 02:26:47;;;;;;;5.93;1.67;;;12.80;70.80;;;;;;5015792;28;20040;-78
2023/11/24 02:29:13;;;;;;;6.13;1.70;;;12.80;70.30;;;;;;5035720;28;20752;-79
2023/11/24 02:31:39;;;;;;;5.38;1.25;;;12.80;70.30;;;;;;5030630;28;20091;-78
2023/11/24 02:34:07;;;;;;;6.20;3.20;;;12.70;70.10;;;;;;5023482;28;20385;-77
2023/11/24 02:36:36;;;;;;;6.03;1.95;;;12.80;70.30;;;;;;5021666;28;20362;-77
2023/11/24 02:39:03;;;;;;;5.15;1.58;;;12.80;70.20;;;;;;5022588;28;20325;-77
2023/11/24 02:41:32;;;;;;;3.60;1.10;;;12.70;70.10;;;;;;5037775;28;20152;-79
2023/11/24 02:43:59;;;;;;;11.10;2.08;;;12.70;70.00;;;;;;5009651;28;20048;-79
2023/11/24 02:46:26;;;;;;;8.30;1.52;;;12.70;70.00;;;;;;5023192;28;20261;-79
2023/11/24 02:48:52;;;;;;;7.65;1.52;;;12.60;69.80;;;;;;5033772;28;20044;-79
2023/11/24 02:51:18;;;;;;;6.68;1.55;;;12.70;70.00;;;;;;5048069;28;20100;-77
2023/11/24 02:53:45;;;;;;;12.75;2.65;;;12.60;69.80;;;;;;5026062;28;20025;-79
2023/11/24 02:56:11;;;;;;;5.38;1.90;;;12.60;69.70;;;;;;5017305;28;20112;-78
2023/11/24 02:58:37;;;;;;;6.57;2.28;;;12.60;69.70;;;;;;5056047;28;20172;-79
2023/11/24 03:01:05;;;;;;;5.32;1.92;;;12.50;69.50;;;;;;5019701;28;20087;-77
2023/11/24 03:03:31;;;;;;;7.32;1.60;;;12.60;69.70;;;;;;5026192;28;20030;-79
2023/11/24 03:06:02;;;;;;;7.28;2.25;;;12.50;69.50;;;;;;5032415;28;20086;-79
2023/11/24 03:08:29;;;;;;;10.23;2.20;;;12.50;69.50;;;;;;5025911;28;20049;-79
2023/11/24 03:10:55;;;;;;;6.40;1.40;;;12.50;69.60;;;;;;5019741;28;20056;-79
2023/11/24 03:13:21;;;;;;;5.85;1.20;;;12.50;69.50;;;;;;5027735;28;20087;-78
2023/11/24 03:15:47;;;;;;;8.40;1.98;;;12.50;69.50;;;;;;5022989;28;20026;-79
2023/11/24 03:18:13;;;;;;;5.45;1.30;;;12.40;69.20;;;;;;5024065;28;20029;-77
2023/11/24 03:20:40;;;;;;;5.32;1.90;;;12.40;69.20;;;;;;5024001;28;20520;-77
2023/11/24 03:23:07;;;;;;;7.22;1.88;;;12.40;69.20;;;;;;5026062;28;20569;-77
2023/11/24 03:25:34;;;;;;;10.32;2.03;;;12.40;69.20;;;;;;5025634;28;20167;-78
2023/11/24 03:28:00;;;;;;;5.82;2.00;;;12.40;69.20;;;;;;5026803;28;20041;-77
2023/11/24 03:30:27;;;;;;;5.43;2.08;;;12.30;69.00;;;;;;5019005;28;20038;-77
2023/11/24 03:32:53;;;;;;;8.40;2.20;;;12.40;69.10;;;;;;5035267;28;20061;-77
2023/11/24 03:35:19;;;;;;;10.30;2.08;;;12.30;68.90;;;;;;5023088;28;20583;-77
2023/11/24 03:37:45;;;;;;;9.13;2.10;;;12.30;68.90;;;;;;5020740;28;20029;-77
2023/11/24 03:40:12;;;;;;;7.45;1.55;;;12.30;68.90;;;;;;5017446;28;20046;-77
2023/11/24 03:42:39;;;;;;;8.82;1.85;;;12.30;68.90;;;;;;5026501;28;20037;-78
2023/11/24 03:45:06;;;;;;;6.15;1.80;;;12.30;68.90;;;;;;5018475;28;20038;-77
2023/11/24 03:47:32;;;;;;;9.40;2.20;;;12.20;68.80;;;;;;5032275;28;20029;-77
2023/11/24 03:50:01;;;;;;;7.90;2.00;;;12.20;68.80;;;;;;5016818;28;20346;-77
2023/11/24 03:52:27;;;;;;;5.95;2.17;;;12.20;68.80;;;;;;5039384;28;20029;-78
2023/11/24 03:54:53;;;;;;;8.38;2.15;;;12.20;68.70;;;;;;5028458;28;20101;-77
2023/11/24 03:57:19;;;;;;;6.78;1.85;;;12.20;68.70;;;;;;5022412;28;20099;-78
2023/11/24 03:59:45;;;;;;;10.18;2.30;;;12.20;68.70;;;;;;5017267;28;20029;-77
2023/11/24 04:02:11;;;;;;;9.98;1.95;;;12.20;68.70;;;;;;5024225;28;20445;-78
2023/11/24 04:04:38;;;;;;;10.52;2.35;;;12.20;68.70;;;;;;5015673;28;20029;-78
2023/11/24 04:07:04;;;;;;;8.70;1.75;;;12.10;68.40;;;;;;5025435;28;20476;-77
2023/11/24 04:09:30;;;;;;;11.38;2.65;;;12.10;68.40;;;;;;5037568;28;20113;-78
2023/11/24 04:11:56;;;;;;;12.70;2.42;;;12.10;68.40;;;;;;5034907;28;20132;-77
2023/11/24 04:14:22;;;;;;;14.13;4.18;;;12.10;68.40;;;;;;5036705;28;20459;-78
2023/11/24 04:16:48;;;;;;;7.43;1.88;;;12.10;68.40;;;;;;5018129;28;20044;-78
2023/11/24 04:19:14;;;;;;;8.40;2.42;;;12.00;68.20;;;;;;5032543;28;20033;-77
2023/11/24 04:21:40;;;;;;;12.13;3.30;;;12.00;68.20;;;;;;5030914;28;20045;-77
2023/11/24 04:24:10;;;;;;;12.27;2.30;;;12.00;68.20;;;;;;5035062;28;20048;-78
2023/11/24 04:26:37;;;;;;;9.63;3.28;;;12.00;68.10;;;;;;5021477;28;20473;-78
2023/11/24 04:29:03;;;;;;;14.05;3.13;;;12.00;68.10;;;;;;5004738;28;20077;-78
2023/11/24 04:31:30;;;;;;;9.30;2.85;;;12.00;68.60;;;;;;5025369;28;20033;-78
2023/11/24 04:33:56;;;;;;;13.32;2.83;;;12.00;68.00;;;;;;5018792;28;20030;-78
2023/11/24 04:36:22;;;;;;;10.43;2.47;;;12.00;68.00;;;;;;5023373;28;20037;-78
2023/11/24 04:38:49;;;;;;;12.10;2.35;;;12.00;68.00;;;;;;5019523;28;20044;-78
2023/11/24 04:41:15;;;;;;;12.82;2.75;;;12.00;67.90;;;;;;5028238;28;20050;-77
2023/11/24 04:43:41;;;;;;;12.52;3.78;;;12.00;67.80;;;;;;5020737;28;20041;-78
2023/11/24 04:46:09;;;;;;;10.02;2.38;;;12.00;67.80;;;;;;5023322;28;20117;-78
2023/11/24 04:48:37;;;;;;;9.35;2.40;;;12.00;67.70;;;;;;5027171;28;20044;-78
2023/11/24 04:51:04;;;;;;;13.02;3.78;;;12.00;67.70;;;;;;5029300;28;20029;-78
2023/11/24 04:53:31;;;;;;;5.68;2.05;;;12.00;67.70;;;;;;5028522;28;20128;-78
2023/11/24 04:55:57;;;;;;;8.93;2.50;;;11.90;67.50;;;;;;5028743;28;20290;-78
2023/11/24 04:58:23;;;;;;;9.05;3.15;;;11.90;67.40;;;;;;5029076;28;20032;-78
2023/11/24 05:00:49;;;;;;;10.65;2.70;;;11.90;67.40;;;;;;5034210;28;20037;-78
2023/11/24 05:03:15;;;;;;;12.55;3.30;;;11.90;67.40;;;;;;5021917;28;20030;-78
2023/11/24 05:05:41;;;;;;;7.85;2.95;;;11.90;67.40;;;;;;5026037;28;20404;-78
2023/11/24 05:08:07;;;;;;;9.43;2.58;;;11.80;67.20;;;;;;5028178;28;20041;-78
2023/11/24 05:10:34;;;;;;;14.50;2.90;;;11.80;67.70;;;;;;5028815;28;20032;-79
2023/11/24 05:13:00;;;;;;;12.27;2.88;;;11.90;67.30;;;;;;5022011;28;20606;-78
2023/11/24 05:15:26;;;;;;;13.98;3.30;;;11.80;67.10;;;;;;5031139;28;20124;-78
2023/11/24 05:17:52;;;;;;;10.43;3.00;;;11.80;67.10;;;;;;5031652;28;20028;-78
2023/11/24 05:20:18;;;;;;;12.35;2.85;;;11.80;67.00;;;;;;5029991;28;20037;-78
2023/11/24 05:22:45;;;;;;;10.65;3.00;;;11.80;67.10;;;;;;5031873;28;20064;-78
2023/11/24 05:25:12;;;;;;;11.45;3.42;;;11.70;66.90;;;;;;5036792;28;20044;-78
2023/11/24 05:27:38;;;;;;;11.23;3.28;;;11.70;66.80;;;;;;5031304;28;20083;-78
2023/11/24 05:30:08;;;;;;;10.27;2.60;;;11.70;66.80;;;;;;5027192;28;20030;-78
2023/11/24 05:32:37;;;;;;;13.10;3.38;;;11.70;66.80;;;;;;5042628;28;20112;-78
2023/11/24 05:35:04;;;;;;;14.93;3.13;;;11.60;66.60;;;;;;5029890;28;20115;-78
2023/11/24 05:37:30;;;;;;;16.00;2.80;;;11.60;66.60;;;;;;5026195;28;20611;-78
2023/11/24 05:39:56;;;;;;;10.32;3.78;;;11.60;66.70;;;;;;5030880;28;20025;-78
2023/11/24 05:42:22;;;;;;;14.70;4.03;;;11.60;66.70;;;;;;5030433;28;20059;-77
2023/11/24 05:44:48;;;;;;;14.30;3.55;;;11.50;66.50;;;;;;5043987;28;20195;-78
2023/11/24 05:47:13;;;;;;;10.27;2.60;;;11.50;66.50;;;;;;5027797;28;20481;-77
2023/11/24 05:49:41;;;;;;;13.73;2.75;;;11.50;66.50;;;;;;5032628;28;20044;-78
2023/11/24 05:52:15;;;;;;;13.68;3.03;;;11.50;66.50;;;;;;5025714;28;20836;-78
2023/11/24 05:54:41;;;;;;;13.60;2.78;;;11.40;66.30;;;;;;5026990;28;20116;-78
2023/11/24 05:57:08;;;;;;;9.40;3.03;;;11.40;66.40;;;;;;5031888;28;20037;-78
2023/11/24 05:59:34;;;;;;;13.32;3.25;;;11.30;66.20;;;;;;5034989;28;20342;-77
2023/11/24 06:02:03;;;;;;;13.32;2.97;;;11.40;66.40;;;;;;5018742;28;20226;-77
2023/11/24 06:04:29;;;;;;;14.57;4.13;;;11.40;66.40;;;;;;5027779;28;20091;-77
2023/11/24 06:06:55;;;;;;;10.65;3.10;;;11.30;66.20;;;;;;5019704;28;20108;-77
2023/11/24 06:09:23;;;;;;;10.85;3.08;;;11.30;66.20;;;;;;5016747;28;20090;-77
2023/11/24 06:11:49;;;;;;;9.98;2.92;;;11.30;66.20;;;;;;5023964;28;20037;-79
2023/11/24 06:14:15;;;;;;;8.50;3.28;;;11.30;66.30;;;;;;5013778;28;20508;-79
2023/11/24 06:16:41;;;;;;;12.38;3.53;;;11.30;66.20;;;;;;5019361;28;20064;-79
2023/11/24 06:19:06;;;;;;;10.20;2.92;;;11.30;66.30;;;;;;5016376;28;20033;-79
2023/11/24 06:21:33;;;;;;;11.25;3.17;;;11.20;66.10;;;;;;5029176;28;20029;-79
2023/11/24 06:23:59;;;;;;;10.98;2.30;;;11.20;66.10;;;;;;5017474;28;20041;-77
2023/11/24 06:26:27;;;;;;;13.48;2.97;;;11.20;66.00;;;;;;5020535;28;20037;-77
2023/11/24 06:28:53;;;;;;;9.88;3.53;;;11.20;66.10;;;;;;5016107;28;20388;-80
2023/11/24 06:31:19;;;;;;;14.20;3.40;;;11.20;66.00;;;;;;5014333;28;20025;-79
2023/11/24 06:33:45;;;;;;;11.68;2.67;;;11.20;66.10;;;;;;5029499;28;20308;-78
2023/11/24 06:36:11;;;;;;;11.45;2.28;;;11.10;65.80;;;;;;5015447;28;20039;-79
2023/11/24 06:38:40;;;;;;;10.90;3.40;;;11.10;65.80;;;;;;5012456;28;20060;-78
2023/11/24 06:41:09;;;;;;;15.98;3.47;;;11.10;65.80;;;;;;5017664;28;20084;-77
2023/11/24 06:43:35;;;;;;;12.43;2.90;;;11.10;65.80;;;;;;5011792;28;20521;-76
2023/11/24 06:46:02;;;;;;;11.45;3.58;;;11.10;65.80;;;;;;5015936;28;20464;-76
2023/11/24 06:48:28;;;;;;;13.75;3.03;;;11.10;65.80;;;;;;5024632;28;20080;-78
2023/11/24 06:50:54;;;;;;;16.05;4.88;;;11.10;65.90;;;;;;5014610;28;20132;-78
2023/11/24 06:53:20;;;;;;;13.15;2.50;;;11.10;65.80;;;;;;5017359;28;20049;-78
2023/11/24 06:55:47;;;;;;;12.43;4.38;;;11.00;65.60;;;;;;5017744;28;20029;-83
2023/11/24 06:58:13;;;;;;;14.02;2.30;;;11.00;65.50;;;;;;5032666;28;20284;-77
2023/11/24 07:00:39;;;;;;;16.05;2.35;;;11.00;65.70;;;;;;5015181;28;20482;-78
2023/11/24 07:03:06;;;;;;;15.05;2.58;;;11.10;66.30;;;;;;5018704;28;20029;-78
2023/11/24 07:05:32;;;;;;;8.13;2.83;;;11.10;66.50;;;;;;5005458;28;20060;-78
2023/11/24 07:07:58;;;;;;;10.95;2.60;;;11.10;66.60;;;;;;5018124;28;20116;-79
2023/11/24 07:10:26;;;;;;;11.80;3.78;;;11.10;66.60;;;;;;5017968;28;20516;-78
2023/11/24 07:12:52;;;;;;;15.20;3.28;;;11.20;66.70;;;;;;5017289;28;20183;-78
2023/11/24 07:15:18;;;;;;;14.25;3.13;;;11.10;66.50;;;;;;5015940;28;20140;-79
2023/11/24 07:17:44;;;;;;;13.15;3.85;;;11.20;66.70;;;;;;5019531;28;20041;-78
2023/11/24 07:20:11;;;;;;;14.55;3.80;;;11.20;66.70;;;;;;5012437;28;20141;-80
2023/11/24 07:22:44;;;;;;;13.52;3.17;;;11.20;66.70;;;;;;5015658;28;20045;-79
2023/11/24 07:25:13;;;;;;;14.52;3.00;;;11.20;66.70;;;;;;5016925;28;20426;-77
2023/11/24 07:27:42;;;;;;;13.18;2.83;;;11.20;66.70;;;;;;5017514;28;20049;-79
2023/11/24 07:30:09;;;;;;;15.18;3.03;;;11.20;66.70;;;;;;5047138;28;20037;-79
2023/11/24 07:32:37;;;;;;;11.98;3.40;;;11.20;66.60;;;;;;5016029;28;20037;-78
2023/11/24 07:35:03;;;;;;;15.52;3.80;;;11.20;66.60;;;;;;5011497;28;20108;-79
2023/11/24 07:37:29;;;;;;;13.35;2.88;;;11.20;66.50;;;;;;5020768;28;20128;-79
2023/11/24 07:39:55;;;;;;;11.38;2.65;;;11.20;66.50;;;;;;5037730;28;20040;-81
2023/11/24 07:42:22;;;;;;;21.55;4.00;;;11.20;66.50;;;;;;5017262;28;20045;-80
2023/11/24 07:44:48;;;;;;;16.40;3.45;;;11.20;66.50;;;;;;5018309;28;20040;-80
2023/11/24 07:47:18;;;;;;;15.07;3.67;;;11.20;66.70;;;;;;5017359;28;20029;-80
2023/11/24 07:49:47;;;;;;;16.48;4.28;;;11.20;67.10;;;;;;5015018;28;20396;-79
2023/11/24 07:52:14;;;;;;;14.68;3.25;;;11.30;67.60;;;;;;5019286;28;20025;-78
2023/11/24 07:54:42;;;;;;;16.45;3.55;;;11.30;67.80;;;;;;5048689;28;20095;-78
2023/11/24 07:57:08;;;;;;;12.98;3.10;;;11.30;68.10;;;;;;5023535;28;20170;-78
2023/11/24 07:59:35;;;;;;;15.45;3.83;;;11.40;68.50;;;;;;5019671;28;20048;-79
2023/11/24 08:02:01;;;;;;;15.35;4.05;;;11.50;68.90;;;;;;5050479;28;20048;-81
2023/11/24 08:04:28;;;;;;;13.80;2.97;;;11.60;69.20;;;;;;5014539;28;20068;-80
2023/11/24 08:06:54;;;;;;;12.93;4.82;;;11.60;69.30;;;;;;5022057;28;20118;-79
2023/11/24 08:09:20;;;;;;;15.55;3.72;;;11.70;69.60;;;;;;5015286;28;20038;-78
2023/11/24 08:11:46;;;;;;;14.63;3.58;;;11.80;69.90;;;;;;5020617;28;20507;-79
2023/11/24 08:14:12;;;;;;;12.57;3.47;;;11.80;70.00;;;;;;5017718;28;20042;-81
2023/11/24 08:16:38;;;;;;;14.68;2.92;;;11.90;70.30;;;;;;5017573;28;20148;-81
2023/11/24 08:19:05;;;;;;;9.50;2.90;;;11.90;70.30;;;;;;5014070;28;20078;-81
2023/11/24 08:21:31;;;;;;;10.35;2.70;;;12.00;70.50;;;;;;5049275;28;20041;-79
2023/11/24 08:23:58;;;;;;;11.18;2.72;;;12.10;70.70;;;;;;5021539;28;20492;-79
2023/11/24 08:26:23;;;;;;;15.57;3.22;;;12.20;71.00;;;;;;5017742;28;20048;-78
2023/11/24 08:28:49;;;;;;;11.10;3.10;;;12.20;71.00;;;;;;5016688;28;20286;-81
2023/11/24 08:31:19;;;;;;;11.10;3.10;;;12.30;71.70;;;;;;5013816;28;20393;-81
2023/11/24 08:33:46;;;;;;;12.10;3.63;;;12.30;71.20;;;;;;5014685;28;20029;-81
2023/11/24 08:36:13;;;;;;;10.65;2.83;;;12.40;71.30;;;;;;5010108;28;20029;-78
2023/11/24 08:38:39;;;;;;;12.63;3.15;;;12.50;71.60;;;;;;5017482;28;20413;-78
2023/11/24 08:41:13;;;;;;;11.15;3.15;;;12.50;71.60;;;;;;5020197;28;20045;-79
2023/11/24 08:43:40;;;;;;;10.10;2.38;;;12.60;71.80;;;;;;5016057;28;20039;-79
2023/11/24 08:46:08;;;;;;;11.88;3.85;;;12.70;71.90;;;;;;5012951;28;20560;-79
2023/11/24 08:48:35;;;;;;;12.70;3.35;;;12.80;72.50;;;;;;5023833;28;20116;-80
2023/11/24 08:51:01;;;;;;;11.68;2.42;;;13.00;72.90;;;;;;5015257;28;20033;-79
2023/11/24 08:53:27;;;;;;;10.30;2.40;;;13.20;73.80;;;;;;5020910;28;20275;-80
2023/11/24 08:55:54;;;;;;;10.00;3.05;;;13.30;73.30;;;;;;5032534;28;20025;-80
2023/11/24 08:58:20;;;;;;;10.73;3.33;;;13.60;73.60;;;;;;5014168;28;20037;-80
2023/11/24 09:00:46;;;;;;;9.63;2.70;;;13.80;73.60;;;;;;5015419;28;20033;-82
2023/11/24 09:03:12;;;;;;;7.20;1.88;;;13.90;73.40;;;;;;5018415;28;20045;-81
2023/11/24 09:05:38;;;;;;;9.70;2.40;;;14.10;73.40;;;;;;5006565;28;20037;-81
2023/11/24 09:08:07;;;;;;;8.07;2.83;;;14.30;73.40;;;;;;5013466;28;20056;-80
2023/11/24 09:10:33;;;;;;;9.27;2.47;;;14.50;73.40;;;;;;5016576;28;20033;-79
2023/11/24 09:12:59;;;;;;;10.10;3.10;;;14.70;73.40;;;;;;5014076;28;20033;-80
2023/11/24 09:15:26;;;;;;;10.80;3.15;;;14.80;73.30;;;;;;5016008;28;20489;-79
2023/11/24 09:17:53;;;;;;;8.52;2.50;;;14.90;73.20;;;;;;5016579;28;20025;-79
2023/11/24 09:20:19;;;;;;;5.93;1.88;;;15.10;73.20;;;;;;5030958;28;20033;-80
2023/11/24 09:22:45;;;;;;;8.68;2.05;;;15.10;72.90;;;;;;5020626;28;20242;-80
2023/11/24 09:25:14;;;;;;;7.28;3.38;;;15.20;72.80;;;;;;5014870;28;20048;-79
2023/11/24 09:27:41;;;;;;;6.43;2.30;;;15.40;72.90;;;;;;5007114;28;20777;-79
2023/11/24 09:30:10;;;;;;;5.38;1.70;;;15.50;72.80;;;;;;5020667;28;20038;-81
2023/11/24 09:32:37;;;;;;;10.88;3.03;;;15.60;72.70;;;;;;5025511;28;20041;-81
2023/11/24 09:35:07;;;;;;;6.93;1.98;;;15.70;72.60;;;;;;5031852;28;20032;-80
2023/11/24 09:37:34;;;;;;;8.43;2.30;;;15.80;72.40;;;;;;5018549;28;20563;-79
2023/11/24 09:40:02;;;;;;;9.32;2.88;;;15.90;72.30;;;;;;5023174;28;20113;-85
2023/11/24 09:42:39;;;;;;;5.50;2.25;;;16.00;72.20;;;;;;5034267;28;20045;-82
2023/11/24 09:45:14;;;;;;;9.43;2.60;;;16.10;72.00;;;;;;5017252;28;20042;-80
2023/11/24 09:47:47;;;;;;;5.10;1.65;;;16.20;71.90;;;;;;5018927;28;20041;-79
2023/11/24 09:50:14;;;;;;;;;;;16.30;71.80;;;;;;5020329;28;20181;-79
2023/11/24 09:52:45;;;;;;;6.82;1.70;;;16.40;71.80;;;;;;5016564;28;19917;-79
2023/11/24 09:55:14;;;;;;;5.38;1.73;;;16.40;71.70;;;;;;5022371;28;20556;-79
2023/11/24 09:57:41;;;;;;;6.03;2.05;;;16.50;71.70;;;;;;5018034;28;20480;-79
2023/11/24 10:00:10;;;;;;;7.00;2.25;;;16.50;71.50;;;;;;5023770;28;20041;-78
2023/11/24 10:02:39;;;;;;;8.18;1.95;;;16.60;71.40;;;;;;5021797;28;20032;-78
2023/11/24 10:05:07;;;;;;;8.65;2.10;;;16.70;71.40;;;;;;5023859;28;20431;-79
2023/11/24 10:07:34;;;;;;;4.07;1.38;;;16.80;71.30;;;;;;5023420;28;20300;-78
2023/11/24 10:10:04;;;;;;;9.18;2.85;;;16.80;71.10;;;;;;5037015;28;20079;-79
2023/11/24 10:12:30;;;;;;;4.13;2.05;;;16.90;71.00;;;;;;5039752;28;20108;-79
2023/11/24 10:14:57;;;;;;;7.63;2.28;;;17.00;70.90;;;;;;5015307;28;20030;-79
2023/11/24 10:17:23;;;;;;;7.35;2.17;;;17.10;70.80;;;;;;5019993;28;20034;-79
2023/11/24 10:19:51;;;;;;;6.72;2.53;;;17.10;70.50;;;;;;5017798;28;20096;-79
2023/11/24 10:22:19;;;;;;;5.55;1.67;;;17.30;70.60;;;;;;5018052;28;20120;-79
2023/11/24 10:24:45;;;;;;;7.38;2.50;;;17.30;70.30;;;;;;5019822;28;20083;-80
2023/11/24 10:27:22;;;;;;;4.03;1.90;;;17.40;70.30;;;;;;5018307;28;20083;-80
2023/11/24 10:29:51;;;;;;;5.50;1.60;;;17.50;70.00;;;;;;5032357;28;20033;-80
2023/11/24 10:32:19;;;;;;;5.88;2.60;;;17.60;70.00;;;;;;5018741;28;20714;-79
2023/11/24 10:34:46;;;;;;;4.75;1.67;;;17.60;69.80;;;;;;5043833;28;20041;-80
2023/11/24 10:37:20;;;;;;;7.45;1.90;;;17.70;69.70;;;;;;5054997;28;20040;-79
2023/11/24 10:39:47;;;;;;;4.70;1.50;;;17.70;69.40;;;;;;5019474;28;20420;-80
2023/11/24 10:42:19;;;;;;;5.20;1.40;;;17.80;69.40;;;;;;5019971;28;20044;-80
2023/11/24 10:44:57;;;;;;;6.05;1.50;;;17.80;69.30;;;;;;5033124;28;20040;-79
2023/11/24 10:47:29;;;;;;;5.68;2.03;;;17.90;69.20;;;;;;5015767;28;20045;-79
2023/11/24 10:50:09;;;;;;;2.70;1.23;;;17.90;68.80;;;;;;5021052;28;20033;-80
2023/11/24 10:52:56;;;;;;;5.45;1.80;;;18.00;68.70;;;;;;5019965;28;20407;-79
2023/11/24 10:55:22;;;;;;;5.65;1.50;;;18.10;68.80;;;;;;5019604;28;20033;-79
2023/11/24 10:57:49;;;;;;;6.60;1.85;;;18.10;68.60;;;;;;5017023;28;20397;-79
2023/11/24 11:00:19;;;;;;;6.05;1.83;;;18.20;68.50;;;;;;5019250;28;20038;-79
2023/11/24 11:02:45;;;;;;;6.20;1.77;;;18.30;68.40;;;;;;5026323;28;20458;-79
2023/11/24 11:05:20;;;;;;;4.40;1.38;;;18.30;68.10;;;;;;5015305;28;20275;-77
2023/11/24 11:08:03;;;;;;;4.15;1.48;;;18.30;67.80;;;;;;5032692;28;20046;-78
2023/11/24 11:10:36;;;;;;;4.80;2.50;;;18.40;67.80;;;;;;5010073;28;20041;-79
2023/11/24 11:13:03;;;;;;;5.20;1.55;;;18.40;67.80;;;;;;5019827;28;20394;-79
2023/11/24 11:15:32;;;;;;;4.18;1.33;;;18.40;67.60;;;;;;5018842;28;20038;-79
2023/11/24 11:18:14;;;;;;;6.68;1.50;;;18.40;67.30;;;;;;5033406;28;20088;-79
2023/11/24 11:20:44;;;;;;;7.93;2.67;;;18.40;67.00;;;;;;5013053;28;20041;-80
2023/11/24 11:23:14;;;;;;;5.47;1.35;;;18.40;67.10;;;;;;5020684;28;20038;-78
2023/11/24 11:25:44;;;;;;;4.88;1.42;;;18.40;66.90;;;;;;5010841;28;20117;-79
2023/11/24 11:28:17;;;;;;;6.75;1.75;;;18.40;66.70;;;;;;5032168;28;20088;-78
2023/11/24 11:30:50;;;;;;;7.95;2.20;;;18.40;66.70;;;;;;5016100;28;20029;-78
2023/11/24 11:33:20;;;;;;;3.07;1.20;;;18.40;66.40;;;;;;5020517;28;20577;-78
2023/11/24 11:35:58;;;;;;;6.47;1.77;;;18.40;66.40;;;;;;5016106;28;20627;-78
2023/11/24 11:38:43;;;;;;;4.00;1.52;;;18.40;66.20;;;;;;5017023;28;20037;-78
2023/11/24 11:41:33;;;;;;;5.85;1.85;;;18.40;66.00;;;;;;5013641;28;20061;-79
2023/11/24 11:44:00;;;;;;;5.63;1.40;;;18.40;66.00;;;;;;5028263;28;20033;-78
2023/11/24 11:46:26;;;;;;;3.42;1.27;;;18.30;65.80;;;;;;5017572;28;20072;-78
2023/11/24 11:48:57;;;;;;;5.28;1.33;;;18.30;65.60;;;;;;5017835;28;20133;-78
2023/11/24 11:51:23;;;;;;;3.65;1.10;;;18.30;65.50;;;;;;5012321;28;20037;-78
2023/11/24 11:53:50;;;;;;;5.05;1.75;;;18.20;65.30;;;;;;5018094;28;20037;-78
2023/11/24 11:56:16;;;;;;;5.20;1.70;;;18.30;65.40;;;;;;5020410;28;20037;-77
2023/11/24 11:58:42;;;;;;;2.22;1.10;;;18.20;65.10;;;;;;5016482;28;20076;-86
2023/11/24 12:01:09;;;;;;;2.85;1.23;;;18.20;65.00;;;;;;5016718;28;20933;-90
2023/11/24 12:03:36;;;;;;;6.68;2.50;;;18.20;64.90;;;;;;5018390;28;20037;-82
2023/11/24 12:06:07;;;;;;;3.72;1.90;;;18.10;64.60;;;;;;5012013;28;20491;-80
2023/11/24 12:08:38;;;;;;;5.50;1.88;;;18.00;64.40;;;;;;5014779;28;20045;-80
2023/11/24 12:11:05;;;;;;;3.75;1.70;;;18.00;64.40;;;;;;5033607;28;20555;-80
2023/11/24 12:13:31;;;;;;;6.82;1.90;;;17.90;64.40;;;;;;5015403;28;20052;-80
2023/11/24 12:15:59;;;;;;;3.63;1.23;;;17.90;64.50;;;;;;5016466;28;20551;-80
2023/11/24 12:18:25;;;;;;;4.15;1.60;;;17.90;64.60;;;;;;5018233;28;20022;-80
2023/11/24 12:20:52;;;;;;;3.92;1.20;;;17.90;64.60;;;;;;5015053;28;20041;-79
2023/11/24 12:23:20;;;;;;;3.03;1.10;;;17.90;64.70;;;;;;5035394;28;20396;-80
2023/11/24 12:25:47;;;;;;;3.63;1.42;;;17.90;64.60;;;;;;5014678;28;20051;-81
2023/11/24 12:28:13;;;;;;;3.28;1.15;;;17.90;64.50;;;;;;5013296;28;20095;-81
2023/11/24 12:30:41;;;;;;;5.53;1.25;;;18.00;64.50;;;;;;5019679;28;20041;-79
2023/11/24 12:33:20;;;;;;;3.63;1.30;;;17.90;64.20;;;;;;5024006;28;20379;-79
2023/11/24 12:35:52;;;;;;;2.78;0.90;;;18.00;64.20;;;;;;5015417;28;20022;-79
2023/11/24 12:38:21;;;;;;;3.55;1.13;;;18.00;64.00;;;;;;5014055;28;20063;-79
2023/11/24 12:40:50;;;;;;;2.65;1.20;;;17.90;63.80;;;;;;5019176;28;20081;-80
2023/11/24 12:43:17;;;;;;;3.83;0.93;;;17.90;63.80;;;;;;5031242;28;20586;-80